Charlottesville, VA (22903)

12:48 PM EST on January 16, 2017 (GMT -0500)
Ivy at Willow Oak | | Change Station

Elev 640 ft 38.07 °N, 78.59 °W | Updated 3 minutes ago

Overcast
Overcast
41.5 °F
Feels Like 42 °F
N
0.0
Wind Variable Wind from SE
Gusts 0.0 mph

Today
High -- | Low -- °F
--% Chance of Precip.
Yesterday
High -- | Low -- °F
Precip. -- in
Pressure 30.41 in
Visibility 10.0 miles
Clouds Overcast 500 ft
Windchill 42 °F
Dew Point 41 °F
Humidity 99%
Rainfall 0.06 in
Snow Depth Not available.
7:28 AM 5:20 PM
Waning Gibbous, 79% visible
SPECI KCHO 161700Z 20005KT 10SM OVC005 06/04 A3041 RMK AO2 T00610044
Pressure 30.41 in
Visibility 10.0 miles
Clouds Overcast 500 ft
Windchill 42 °F
Dew Point 41 °F
Humidity 99%
Rainfall 0.06 in
Snow Depth Not available.
7:28 AM 5:20 PM
Waning Gibbous, 79% visible
SPECI KCHO 161700Z 20005KT 10SM OVC005 06/04 A3041 RMK AO2 T00610044

Get Your Daily Forecast Email!

Thanks for signing up!

Be on the lookout for a verification email in your inbox.

You'll start receiving the daily forecast at 8 AM.

×

10-Day Weather Forecast

Almanac

Astronomy

Jan. 16, 2017 Rise Set
Actual Time
Civil Twilight
Nautical Twilight
Astronomical Twilight
Moon
Length of Visible Light
Length of Day
Tomorrow will be .
, % of the Moon is Illuminated

Today's Extremes

State Highs State Lows

Community

WunderPhotos

Upload Photos

1,962,540 photos uploaded!

WunderBlog® & News

Nearby

Air Quality

  Air Quality AQ Index Pollutant
Not available.

Snow Depth

Station Depth Elevation

Earthquake Activity

City Distance Mag. Time & Date
Minimum magnitude displayed is 2.5.

Coastal Water Temperatures

Place Temperature

Stations

Nearby Weather Stations

Station Location Temp. Windchill Dew Point Humidity Wind Precip. Elev Updated Type
                   

Watches & Warnings

There are currently no watches in effect.